International Falls, Minnesota
Current Conditions -  °F | °C
As of 11:55 AM on Thursday 27 Nov 2014 (Local Time) from KINL Reporting Station
Clear Clear  
Wind Chill: -23°   Ceiling: Unl
Heat Index: -18°   Visibility: 10mi
Dew Point: -22°   Wind: 5mph
Humidity: 72%   Direction: 280°W
Pressure: 30.4"   Gusts: NA
Location:  48.6°N, 93.4°W
Report Text: KINL 271755Z AUTO 28004KT 10SM CLR M18/M22 A3040 RMK AO2 SLP335 T11781217 11178 21289 58013 $
Loading
Personal Weather Stations






























Interactive Weather Map New forecast layout! Learn more

10-Day Weather Forecast

Advertisements
Track Severe Weather on mobile